createdAt,value
2017-02-28T00:00:53.808Z,7.44
2017-02-28T00:02:04.131Z,7.51
2017-02-28T00:03:13.608Z,7.52
2017-02-28T00:04:23.085Z,7.55
2017-02-28T00:05:33.632Z,7.47
2017-02-28T00:06:43.976Z,7.47
2017-02-28T00:07:54.296Z,7.43
2017-02-28T00:09:04.643Z,7.43
2017-02-28T00:10:14.586Z,7.43
2017-02-28T00:11:25.136Z,7.49
2017-02-28T00:12:34.632Z,7.43
2017-02-28T00:13:45.022Z,7.48
2017-02-28T00:14:55.338Z,7.48
2017-02-28T00:16:05.206Z,7.48
2017-02-28T00:17:15.745Z,7.44
2017-02-28T00:18:25.717Z,7.44
2017-02-28T00:19:35.985Z,7.41
2017-02-28T00:20:45.967Z,7.48
2017-02-28T00:21:55.941Z,7.49
2017-02-28T00:23:06.533Z,7.47
2017-02-28T00:24:16.419Z,7.48
2017-02-28T00:25:26.386Z,7.49
2017-02-28T00:26:36.711Z,7.44
2017-02-28T00:27:46.583Z,7.51
2017-02-28T00:28:56.766Z,7.37
2017-02-28T00:30:06.736Z,7.43
2017-02-28T00:31:17.032Z,7.48
2017-02-28T00:32:27.379Z,7.37
2017-02-28T00:33:37.358Z,7.4
2017-02-28T00:34:47.967Z,7.33
2017-02-28T00:35:57.844Z,7.34
2017-02-28T00:37:08.165Z,7.37
2017-02-28T00:38:18.086Z,7.37
2017-02-28T00:39:28.400Z,7.34
2017-02-28T00:40:38.989Z,7.37
2017-02-28T00:41:48.492Z,7.37
2017-02-28T00:42:58.388Z,7.44
2017-02-28T00:44:08.671Z,7.37
2017-02-28T00:45:18.955Z,7.36
2017-02-28T00:46:29.086Z,7.39
2017-02-28T00:47:38.958Z,7.4
2017-02-28T00:48:49.247Z,7.33
2017-02-28T00:49:59.598Z,7.33
2017-02-28T00:51:09.525Z,7.26
2017-02-28T00:52:20.160Z,7.33
2017-02-28T00:53:30.459Z,7.28
2017-02-28T00:54:40.739Z,7.33
2017-02-28T00:55:50.633Z,7.22
2017-02-28T00:57:00.526Z,7.26
2017-02-28T00:58:11.070Z,7.28
2017-02-28T00:59:20.987Z,7.28
2017-02-28T01:00:31.362Z,7.22
2017-02-28T01:01:41.761Z,7.18
2017-02-28T01:02:51.276Z,7.2
2017-02-28T01:04:01.542Z,7.21
2017-02-28T01:05:11.821Z,7.21
2017-02-28T01:06:22.160Z,7.14
2017-02-28T01:07:32.450Z,7.2
2017-02-28T01:08:42.750Z,7.2
2017-02-28T01:09:52.577Z,7.1
2017-02-28T01:11:02.516Z,7.2
2017-02-28T01:12:12.411Z,7.08
2017-02-28T01:13:22.404Z,7.05
2017-02-28T01:14:32.704Z,7.1
2017-02-28T01:15:42.848Z,7
2017-02-28T01:16:52.909Z,7.06
2017-02-28T01:18:03.195Z,7
2017-02-28T01:19:13.446Z,6.96
2017-02-28T01:20:23.324Z,6.95
2017-02-28T01:21:33.867Z,6.95
2017-02-28T01:22:44.205Z,6.87
2017-02-28T01:23:54.509Z,6.9
2017-02-28T01:25:04.752Z,6.97
2017-02-28T01:26:15.205Z,6.97
2017-02-28T01:27:25.785Z,6.9
2017-02-28T01:28:35.991Z,6.89
2017-02-28T01:29:46.287Z,6.82
2017-02-28T01:30:56.566Z,6.75
2017-02-28T01:32:06.905Z,6.84
2017-02-28T01:33:17.080Z,6.81
2017-02-28T01:34:27.344Z,6.75
2017-02-28T01:35:37.670Z,6.84
2017-02-28T01:36:47.944Z,6.72
2017-02-28T01:37:58.273Z,6.77
2017-02-28T01:39:08.461Z,6.82
2017-02-28T01:40:18.370Z,6.77
2017-02-28T01:41:28.668Z,6.71
2017-02-28T01:42:38.611Z,6.77
2017-02-28T01:43:48.978Z,6.77
2017-02-28T01:44:59.591Z,6.77
2017-02-28T01:46:09.465Z,6.79
2017-02-28T01:47:19.769Z,6.74
2017-02-28T01:48:30.133Z,6.79
2017-02-28T01:49:40.486Z,6.75
2017-02-28T01:50:51.011Z,6.79
2017-02-28T01:52:01.332Z,6.75
2017-02-28T01:53:11.197Z,6.72
2017-02-28T01:54:21.068Z,6.67
2017-02-28T01:55:30.990Z,6.72
2017-02-28T01:56:41.503Z,6.63
2017-02-28T01:57:51.407Z,6.66
2017-02-28T01:59:00.889Z,6.72
2017-02-28T02:00:11.195Z,6.75
2017-02-28T02:01:20.778Z,6.66
2017-02-28T02:02:31.342Z,6.63
2017-02-28T02:03:41.236Z,6.6
2017-02-28T02:04:51.627Z,6.75
2017-02-28T02:06:02.035Z,6.63
2017-02-28T02:07:12.366Z,6.62
2017-02-28T02:08:22.970Z,6.62
2017-02-28T02:09:32.854Z,6.6
2017-02-28T02:10:42.729Z,6.62
2017-02-28T02:11:52.674Z,6.59
2017-02-28T02:13:02.933Z,6.6
2017-02-28T02:14:13.449Z,6.71
2017-02-28T02:15:23.748Z,6.75
2017-02-28T02:16:33.628Z,6.63
2017-02-28T02:17:43.922Z,6.72
2017-02-28T02:18:54.212Z,6.75
2017-02-28T02:20:04.823Z,6.77
2017-02-28T02:21:14.721Z,6.62
2017-02-28T02:22:24.215Z,6.66
2017-02-28T02:23:33.304Z,6.67
2017-02-28T02:24:43.179Z,6.74
2017-02-28T02:25:53.721Z,6.64
2017-02-28T02:27:04.080Z,6.63
2017-02-28T02:28:14.325Z,6.59
2017-02-28T02:29:24.229Z,6.63
2017-02-28T02:30:34.149Z,6.59
2017-02-28T02:31:44.432Z,6.62
2017-02-28T02:32:54.702Z,6.66
2017-02-28T02:34:04.983Z,6.56
2017-02-28T02:35:15.272Z,6.54
2017-02-28T02:36:25.202Z,6.53
2017-02-28T02:37:35.784Z,6.59
2017-02-28T02:38:45.731Z,6.59
2017-02-28T02:39:56.041Z,6.45
2017-02-28T02:41:05.912Z,6.48
2017-02-28T02:42:16.391Z,6.46
2017-02-28T02:43:26.933Z,6.54
2017-02-28T02:44:36.921Z,6.57
2017-02-28T02:45:47.229Z,6.48
2017-02-28T02:46:57.516Z,6.44
2017-02-28T02:48:07.819Z,6.49
2017-02-28T02:49:18.556Z,6.46
2017-02-28T02:50:28.949Z,6.46
2017-02-28T02:51:38.849Z,6.53
2017-02-28T02:52:49.118Z,6.49
2017-02-28T02:53:59.151Z,6.53
2017-02-28T02:55:09.691Z,6.41
2017-02-28T02:56:20.050Z,6.52
2017-02-28T02:57:30.338Z,6.44
2017-02-28T02:58:40.639Z,6.52
2017-02-28T02:59:50.494Z,6.52
2017-02-28T03:01:00.663Z,6.46
2017-02-28T03:02:10.553Z,6.46
2017-02-28T03:03:20.191Z,6.46
2017-02-28T03:04:30.104Z,6.48
2017-02-28T03:05:40.458Z,6.46
2017-02-28T03:06:50.663Z,6.42
2017-02-28T03:08:00.935Z,6.42
2017-02-28T03:09:10.806Z,6.45
2017-02-28T03:10:21.115Z,6.45
2017-02-28T03:11:31.004Z,6.45
2017-02-28T03:12:41.501Z,6.42
2017-02-28T03:13:50.978Z,6.42
2017-02-28T03:15:01.295Z,6.44
2017-02-28T03:16:10.797Z,6.42
2017-02-28T03:17:21.228Z,6.3
2017-02-28T03:18:31.802Z,6.28
2017-02-28T03:19:42.098Z,6.41
2017-02-28T03:20:52.365Z,6.28
2017-02-28T03:22:02.639Z,6.28
2017-02-28T03:23:12.896Z,6.36
2017-02-28T03:24:23.491Z,6.27
2017-02-28T03:25:33.550Z,6.28
2017-02-28T03:26:43.400Z,6.34
2017-02-28T03:27:53.275Z,6.27
2017-02-28T03:29:03.647Z,6.27
2017-02-28T03:30:13.821Z,6.24
2017-02-28T03:31:24.086Z,6.28
2017-02-28T03:32:34.468Z,6.17
2017-02-28T03:33:44.374Z,6.28
2017-02-28T03:34:54.633Z,6.23
2017-02-28T03:36:05.237Z,6.27
2017-02-28T03:37:15.133Z,6.23
2017-02-28T03:38:25.422Z,6.26
2017-02-28T03:39:35.329Z,6.27
2017-02-28T03:40:45.635Z,6.28
2017-02-28T03:41:56.155Z,6.23
2017-02-28T03:43:06.059Z,6.3
2017-02-28T03:44:15.996Z,6.24
2017-02-28T03:45:25.889Z,6.24
2017-02-28T03:46:36.269Z,6.35
2017-02-28T03:47:46.800Z,6.26
2017-02-28T03:48:57.097Z,6.31
2017-02-28T03:50:06.965Z,6.28
2017-02-28T03:51:16.859Z,6.44
2017-02-28T03:52:26.751Z,6.42
2017-02-28T03:53:36.093Z,6.42
2017-02-28T03:54:45.967Z,6.44
2017-02-28T03:55:55.870Z,6.28
2017-02-28T03:57:06.166Z,6.3
2017-02-28T03:58:16.507Z,6.3
2017-02-28T03:59:26.626Z,6.39
2017-02-28T04:00:36.486Z,6.44
2017-02-28T04:01:46.398Z,6.44
2017-02-28T04:02:56.674Z,6.41
2017-02-28T04:04:06.539Z,6.3
2017-02-28T04:05:17.084Z,6.3
2017-02-28T04:06:27.068Z,6.27
2017-02-28T04:07:37.137Z,6.39
2017-02-28T04:08:46.996Z,6.34
2017-02-28T04:09:57.309Z,6.3
2017-02-28T04:11:07.883Z,6.28
2017-02-28T04:12:18.163Z,6.35
2017-02-28T04:13:28.061Z,6.34
2017-02-28T04:14:38.045Z,6.36
2017-02-28T04:15:48.355Z,6.3
2017-02-28T04:16:58.870Z,6.23
2017-02-28T04:18:09.158Z,6.31
2017-02-28T04:19:19.109Z,6.28
2017-02-28T04:20:29.388Z,6.39
2017-02-28T04:21:39.671Z,6.31
2017-02-28T04:22:49.448Z,6.35
2017-02-28T04:23:58.946Z,6.3
2017-02-28T04:25:09.204Z,6.34
2017-02-28T04:26:19.488Z,6.34
2017-02-28T04:27:29.417Z,6.3
2017-02-28T04:28:40.002Z,6.26
2017-02-28T04:29:49.879Z,6.39
2017-02-28T04:30:59.813Z,6.31
2017-02-28T04:32:10.156Z,6.31
2017-02-28T04:33:20.420Z,6.3
2017-02-28T04:34:30.980Z,6.28
2017-02-28T04:35:41.291Z,6.34
2017-02-28T04:36:51.177Z,6.36
2017-02-28T04:38:01.088Z,6.38
2017-02-28T04:39:10.995Z,6.28
2017-02-28T04:40:21.153Z,6.26
2017-02-28T04:41:31.073Z,6.35
2017-02-28T04:42:41.028Z,6.26
2017-02-28T04:43:50.909Z,6.27
2017-02-28T04:45:01.378Z,6.35
2017-02-28T04:46:11.186Z,6.36
2017-02-28T04:47:21.538Z,6.24
2017-02-28T04:48:31.435Z,6.27
2017-02-28T04:49:41.769Z,6.27
2017-02-28T04:50:52.137Z,6.34
2017-02-28T04:52:01.836Z,6.31
2017-02-28T04:53:12.178Z,6.28
2017-02-28T04:54:22.207Z,6.3
2017-02-28T04:55:32.549Z,6.27
2017-02-28T04:56:42.857Z,6.27
2017-02-28T04:57:53.471Z,6.26
2017-02-28T04:59:03.761Z,6.26
2017-02-28T05:00:13.681Z,6.2
2017-02-28T05:01:23.946Z,6.14
2017-02-28T05:02:33.819Z,6.19
2017-02-28T05:03:44.393Z,6.14
2017-02-28T05:04:54.356Z,6.19
2017-02-28T05:06:04.654Z,6.16
2017-02-28T05:07:14.936Z,6.17
2017-02-28T05:08:24.992Z,6.17
2017-02-28T05:09:35.586Z,6.2
2017-02-28T05:10:45.452Z,6.19
2017-02-28T05:11:55.750Z,6.2
2017-02-28T05:13:06.025Z,6.21
2017-02-28T05:14:16.441Z,6.12
2017-02-28T05:15:27.039Z,6.16
2017-02-28T05:16:36.096Z,6.16
2017-02-28T05:17:45.626Z,6.19
2017-02-28T05:18:55.910Z,6.19
2017-02-28T05:20:06.175Z,6.19
2017-02-28T05:21:15.926Z,6.2
2017-02-28T05:22:25.841Z,6.17
2017-02-28T05:23:36.358Z,6.17
2017-02-28T05:24:46.670Z,6.08
2017-02-28T05:25:56.547Z,6.06
2017-02-28T05:27:06.681Z,6.06
2017-02-28T05:28:16.969Z,5.94
2017-02-28T05:29:26.988Z,5.93
2017-02-28T05:30:37.304Z,5.75
2017-02-28T05:31:47.754Z,5.75
2017-02-28T05:32:58.296Z,5.64
2017-02-28T05:34:08.587Z,5.59
2017-02-28T05:35:18.517Z,5.44
2017-02-28T05:36:28.880Z,5.49
2017-02-28T05:37:38.771Z,5.38
2017-02-28T05:38:49.309Z,5.4
2017-02-28T05:39:59.206Z,5.41
2017-02-28T05:41:09.529Z,5.31
2017-02-28T05:42:19.835Z,5.28
2017-02-28T05:43:28.912Z,5.29
2017-02-28T05:44:39.525Z,5.28
2017-02-28T05:45:49.788Z,5.29
2017-02-28T05:47:00.067Z,5.31
2017-02-28T05:48:09.920Z,5.29
2017-02-28T05:49:19.826Z,5.21
2017-02-28T05:50:29.978Z,5.24
2017-02-28T05:51:40.370Z,5.16
2017-02-28T05:52:50.692Z,5.24
2017-02-28T05:54:01.006Z,5.18
2017-02-28T05:55:11.367Z,5.22
2017-02-28T05:56:21.472Z,5.25
2017-02-28T05:57:31.766Z,5.31
2017-02-28T05:58:42.071Z,5.28
2017-02-28T05:59:52.354Z,5.21
2017-02-28T06:01:02.234Z,5.28
2017-02-28T06:02:12.785Z,5.21
2017-02-28T06:03:23.076Z,5.21
2017-02-28T06:04:33.392Z,5.22
2017-02-28T06:05:43.687Z,5.26
2017-02-28T06:06:53.946Z,5.22
2017-02-28T06:08:04.537Z,5.24
2017-02-28T06:09:14.436Z,5.31
2017-02-28T06:10:24.312Z,5.18
2017-02-28T06:11:34.612Z,5.13
2017-02-28T06:12:44.936Z,5.24
2017-02-28T06:13:55.121Z,5.26
2017-02-28T06:15:05.439Z,5.29
2017-02-28T06:16:15.361Z,5.31
2017-02-28T06:17:25.254Z,5.31
2017-02-28T06:18:35.155Z,5.22
2017-02-28T06:19:45.843Z,5.25
2017-02-28T06:20:55.879Z,5.22
2017-02-28T06:22:05.807Z,5.31
2017-02-28T06:23:16.081Z,5.24
2017-02-28T06:24:26.475Z,5.21
2017-02-28T06:25:37.045Z,5.25
2017-02-28T06:26:47.325Z,5.22
2017-02-28T06:27:57.726Z,5.24
2017-02-28T06:29:08.006Z,5.26
2017-02-28T06:30:18.310Z,5.22
2017-02-28T06:31:28.819Z,5.25
2017-02-28T06:32:39.124Z,5.21
2017-02-28T06:33:49.039Z,5.32
2017-02-28T06:34:59.345Z,5.31
2017-02-28T06:36:09.629Z,5.29
2017-02-28T06:37:20.144Z,5.22
2017-02-28T06:38:30.502Z,5.31
2017-02-28T06:39:40.406Z,5.17
2017-02-28T06:40:50.278Z,5.21
2017-02-28T06:42:00.582Z,5.22
2017-02-28T06:43:11.171Z,5.22
2017-02-28T06:44:21.025Z,5.28
2017-02-28T06:45:31.306Z,5.22
2017-02-28T06:46:41.624Z,5.28
2017-02-28T06:47:51.573Z,5.32
2017-02-28T06:49:01.757Z,5.28
2017-02-28T06:50:12.129Z,5.18
2017-02-28T06:51:22.001Z,5.32
2017-02-28T06:52:31.940Z,5.28
2017-02-28T06:53:42.270Z,5.18
2017-02-28T06:54:52.398Z,5.21
2017-02-28T06:56:02.309Z,5.29
2017-02-28T06:57:12.612Z,5.32
2017-02-28T06:58:22.929Z,5.26
2017-02-28T06:59:32.573Z,5.32
2017-02-28T07:00:43.258Z,5.32
2017-02-28T07:01:53.190Z,5.32
2017-02-28T07:03:03.447Z,5.21
2017-02-28T07:04:13.847Z,5.17
2017-02-28T07:05:24.139Z,5.33
2017-02-28T07:06:34.280Z,5.32
2017-02-28T07:07:44.548Z,5.22
2017-02-28T07:09:26.588Z,5.26
2017-02-28T07:10:36.894Z,5.22
2017-02-28T07:11:47.393Z,5.26
2017-02-28T07:12:57.648Z,5.18
2017-02-28T07:14:07.906Z,5.31
2017-02-28T07:15:17.883Z,5.22
2017-02-28T07:16:26.997Z,5.18
2017-02-28T07:17:37.671Z,5.22
2017-02-28T07:18:48.024Z,5.26
2017-02-28T07:19:58.387Z,5.18
2017-02-28T07:21:08.666Z,5.24
2017-02-28T07:22:18.964Z,5.24
2017-02-28T07:23:29.223Z,5.36
2017-02-28T07:24:39.139Z,5.25
2017-02-28T07:25:49.384Z,5.24
2017-02-28T07:26:59.711Z,5.21
2017-02-28T07:28:10.002Z,5.28
2017-02-28T07:29:20.590Z,5.21
2017-02-28T07:30:30.095Z,5.21
2017-02-28T07:31:40.342Z,5.22
2017-02-28T07:32:50.346Z,5.22
2017-02-28T07:34:00.216Z,5.24
2017-02-28T07:35:10.372Z,5.25
2017-02-28T07:36:20.846Z,5.32
2017-02-28T07:37:31.108Z,5.26
2017-02-28T07:38:41.435Z,5.26
2017-02-28T07:39:51.765Z,5.25
2017-02-28T07:41:01.905Z,5.31
2017-02-28T07:42:12.213Z,5.17
2017-02-28T07:43:22.116Z,5.26
2017-02-28T07:44:32.002Z,5.38
2017-02-28T07:45:41.493Z,5.26
2017-02-28T07:46:52.507Z,5.29
2017-02-28T07:48:02.844Z,5.31
2017-02-28T07:49:13.218Z,5.26
2017-02-28T07:50:23.471Z,5.29
2017-02-28T07:51:33.735Z,5.31
2017-02-28T07:52:44.358Z,5.38
2017-02-28T07:53:54.276Z,5.38
2017-02-28T07:55:04.162Z,5.43
2017-02-28T07:56:14.460Z,5.38
2017-02-28T07:57:24.773Z,5.41
2017-02-28T07:58:35.330Z,5.43
2017-02-28T07:59:45.273Z,5.4
2017-02-28T08:00:55.730Z,5.35
2017-02-28T08:02:06.162Z,5.49
2017-02-28T08:03:16.448Z,5.51
2017-02-28T08:04:26.975Z,5.5
2017-02-28T08:05:36.886Z,5.46
2017-02-28T08:06:47.199Z,5.46
2017-02-28T08:07:57.098Z,5.43
2017-02-28T08:09:07.406Z,5.47
2017-02-28T08:10:17.919Z,5.49
2017-02-28T08:11:27.795Z,5.56
2017-02-28T08:12:38.055Z,5.51
2017-02-28T08:13:47.935Z,5.54
2017-02-28T08:14:57.833Z,5.53
2017-02-28T08:16:08.105Z,5.69
2017-02-28T08:17:18.431Z,5.72
2017-02-28T08:18:28.013Z,5.88
2017-02-28T08:19:38.986Z,6.41
2017-02-28T08:20:49.397Z,6.63
2017-02-28T08:22:00.753Z,7.41
2017-02-28T08:23:11.490Z,8.03
2017-02-28T08:24:22.473Z,8.53
2017-02-28T08:25:33.471Z,8.63
2017-02-28T08:26:44.434Z,8.92
2017-02-28T08:27:55.818Z,9.44
2017-02-28T08:29:06.770Z,9.53
2017-02-28T08:30:17.253Z,9.67
2017-02-28T08:31:27.930Z,9.83
2017-02-28T08:32:38.881Z,10.51
2017-02-28T08:33:50.185Z,11.08
2017-02-28T08:35:00.350Z,11.46
2017-02-28T08:36:11.326Z,12.07
2017-02-28T08:37:22.377Z,12.5
2017-02-28T08:38:33.358Z,12.81
2017-02-28T08:39:44.206Z,13.11
2017-02-28T08:40:55.242Z,13.23
2017-02-28T08:42:06.219Z,13.04
2017-02-28T08:43:17.177Z,12.85
2017-02-28T08:44:28.183Z,12.52
2017-02-28T08:45:38.784Z,12.64
2017-02-28T08:46:49.735Z,12.64
2017-02-28T08:48:00.565Z,12.62
2017-02-28T08:49:11.192Z,12.72
2017-02-28T08:50:22.145Z,13.09
2017-02-28T08:51:32.563Z,13.3
2017-02-28T08:52:43.553Z,13.45
2017-02-28T08:53:53.642Z,13.66
2017-02-28T08:55:04.190Z,13.73
2017-02-28T08:56:15.311Z,13.89
2017-02-28T08:57:25.320Z,14.14
2017-02-28T08:58:36.353Z,14.02
2017-02-28T08:59:46.963Z,14.03
2017-02-28T09:00:57.569Z,14.24
2017-02-28T09:02:08.202Z,14.25
2017-02-28T09:03:19.529Z,14.06
2017-02-28T09:04:30.538Z,13.4
2017-02-28T09:05:40.820Z,12.72
2017-02-28T09:06:50.817Z,12.09
2017-02-28T09:08:00.756Z,11.57
2017-02-28T09:09:12.091Z,11.4
2017-02-28T09:10:23.067Z,11.62
2017-02-28T09:11:32.813Z,11.74
2017-02-28T09:12:43.781Z,12.09
2017-02-28T09:13:54.348Z,12.66
2017-02-28T09:15:05.569Z,13.36
2017-02-28T09:16:16.191Z,13.74
2017-02-28T09:17:26.782Z,14.06
2017-02-28T09:18:37.756Z,14.62
2017-02-28T09:19:48.734Z,15.11
2017-02-28T09:20:59.546Z,15.33
2017-02-28T09:22:09.857Z,15.35
2017-02-28T09:23:20.847Z,15.45
2017-02-28T09:24:31.460Z,15.55
2017-02-28T09:25:42.736Z,15.79
2017-02-28T09:26:53.560Z,16.16
2017-02-28T09:28:04.590Z,16.25
2017-02-28T09:29:15.155Z,16.43
2017-02-28T09:30:25.732Z,16.39
2017-02-28T09:31:36.777Z,16.46
2017-02-28T09:32:48.017Z,16.24
2017-02-28T09:33:58.612Z,16.39
2017-02-28T09:35:08.731Z,16.21
2017-02-28T09:36:19.775Z,16.11
2017-02-28T09:37:30.353Z,16.09
2017-02-28T09:38:41.738Z,16.14
2017-02-28T09:39:52.705Z,16.38
2017-02-28T09:41:02.913Z,16.39
2017-02-28T09:42:13.896Z,16.04
2017-02-28T09:43:24.606Z,16.17
2017-02-28T09:44:35.937Z,15.73
2017-02-28T09:45:45.835Z,15.08
2017-02-28T09:46:56.134Z,14.03
2017-02-28T09:48:06.731Z,14.11
2017-02-28T09:49:17.317Z,14.24
2017-02-28T09:50:27.937Z,13.77
2017-02-28T09:51:38.259Z,13.34
2017-02-28T09:52:49.209Z,13
2017-02-28T09:53:59.813Z,12.66
2017-02-28T09:55:10.795Z,13.03
2017-02-28T09:56:21.987Z,13.69
2017-02-28T09:57:32.558Z,14.13
2017-02-28T09:58:42.755Z,13.92
2017-02-28T09:59:53.057Z,13.4
2017-02-28T10:01:04.029Z,12.8
2017-02-28T10:02:15.261Z,12.59
2017-02-28T10:03:58.002Z,12.9
2017-02-28T10:05:08.340Z,12.42
2017-02-28T10:06:18.923Z,12.45
2017-02-28T10:07:30.144Z,12.68
2017-02-28T10:08:41.141Z,13
2017-02-28T10:09:51.814Z,13.26
2017-02-28T10:11:00.908Z,13.23
2017-02-28T10:12:11.923Z,13.34
2017-02-28T10:13:23.682Z,13.56
2017-02-28T10:14:34.645Z,13.64
2017-02-28T10:15:45.668Z,13.59
2017-02-28T10:16:56.635Z,13.86
2017-02-28T10:18:07.438Z,14.07
2017-02-28T10:19:18.690Z,14.11
2017-02-28T10:20:29.291Z,14.37
2017-02-28T10:21:39.425Z,14.14
2017-02-28T10:22:49.856Z,13.84
2017-02-28T10:24:00.911Z,14.02
2017-02-28T10:25:12.294Z,14.24
2017-02-28T10:26:22.866Z,14.47
2017-02-28T10:27:33.843Z,14.45
2017-02-28T10:28:44.343Z,14.26
2017-02-28T10:29:54.936Z,14.06
2017-02-28T10:31:05.469Z,13.84
2017-02-28T10:32:15.965Z,13.89
2017-02-28T10:33:26.063Z,13.95
2017-02-28T10:34:37.087Z,13.88
2017-02-28T10:35:47.284Z,14.02
2017-02-28T10:36:57.258Z,14.09
2017-02-28T10:38:07.820Z,14.19
2017-02-28T10:39:18.825Z,14.47
2017-02-28T10:40:28.983Z,14.65
2017-02-28T10:41:40.002Z,14.83
2017-02-28T10:42:50.906Z,15.05
2017-02-28T10:44:01.199Z,14.98
2017-02-28T10:45:11.125Z,15.15
2017-02-28T10:46:22.492Z,15.25
2017-02-28T10:47:32.416Z,15.46
2017-02-28T10:48:43.638Z,15.69
2017-02-28T10:49:53.941Z,15.54
2017-02-28T10:51:04.945Z,15.64
2017-02-28T10:52:15.969Z,15.58
2017-02-28T10:53:26.573Z,15.36
2017-02-28T10:54:37.423Z,15.33
2017-02-28T10:55:47.588Z,15.25
2017-02-28T10:56:58.242Z,14.88
2017-02-28T10:58:09.230Z,14.81
2017-02-28T10:59:19.826Z,14.78
2017-02-28T11:00:31.106Z,14.77
2017-02-28T11:01:42.156Z,14.67
2017-02-28T11:02:53.164Z,14.36
2017-02-28T11:04:03.741Z,14.39
2017-02-28T11:05:14.760Z,14.36
2017-02-28T11:06:25.232Z,14.25
2017-02-28T11:07:35.743Z,14.52
2017-02-28T11:08:46.226Z,14.58
2017-02-28T11:09:57.421Z,14.48
2017-02-28T11:11:08.396Z,14.37
2017-02-28T11:12:19.212Z,14.47
2017-02-28T11:13:30.252Z,14.6
2017-02-28T11:14:40.342Z,14.84
2017-02-28T11:15:50.585Z,14.99
2017-02-28T11:17:01.595Z,15.2
2017-02-28T11:18:12.354Z,15.38
2017-02-28T11:19:23.375Z,15.25
2017-02-28T11:20:33.691Z,14.81
2017-02-28T11:21:43.620Z,14.19
2017-02-28T11:22:53.516Z,14.04
2017-02-28T11:24:04.802Z,13.85
2017-02-28T11:25:15.110Z,13.64
2017-02-28T11:26:25.068Z,13.22
2017-02-28T11:27:35.448Z,12.85
2017-02-28T11:28:46.438Z,12.81
2017-02-28T11:29:56.992Z,12.97
2017-02-28T11:31:07.304Z,13.18
2017-02-28T11:32:17.590Z,13.56
2017-02-28T11:33:27.945Z,13.86
2017-02-28T11:34:38.236Z,14.02
2017-02-28T11:35:49.469Z,14.09
2017-02-28T11:37:00.105Z,14.13
2017-02-28T11:38:11.107Z,14
2017-02-28T11:39:21.733Z,13.91
2017-02-28T11:40:32.346Z,13.84
2017-02-28T11:41:43.187Z,13.99
2017-02-28T11:42:54.194Z,14.06
2017-02-28T11:44:05.139Z,14.14
2017-02-28T11:45:16.176Z,14.28
2017-02-28T11:46:27.212Z,14.62
2017-02-28T11:47:38.086Z,14.85
2017-02-28T11:48:48.758Z,15.05
2017-02-28T11:49:59.733Z,15.13
2017-02-28T11:51:10.398Z,15.14
2017-02-28T11:52:20.931Z,15.11
2017-02-28T11:53:32.257Z,14.95
2017-02-28T11:54:43.288Z,14.72
2017-02-28T11:55:53.824Z,14.69
2017-02-28T11:57:03.773Z,14.6
2017-02-28T11:58:14.090Z,14.54
2017-02-28T11:59:24.669Z,14.11
2017-02-28T12:00:34.557Z,14.09
2017-02-28T12:01:44.467Z,14.25
2017-02-28T12:02:54.443Z,14.13
2017-02-28T12:04:04.789Z,14
2017-02-28T12:05:14.957Z,14.11
2017-02-28T12:06:24.910Z,14.18
2017-02-28T12:07:34.869Z,14.13
2017-02-28T12:08:44.831Z,14.11
2017-02-28T12:09:55.214Z,14.11
2017-02-28T12:11:05.780Z,13.94
2017-02-28T12:12:16.099Z,13.52
2017-02-28T12:13:26.393Z,13.3
2017-02-28T12:14:36.704Z,13.36
2017-02-28T12:15:47.138Z,13.44
2017-02-28T12:16:57.335Z,13.66
2017-02-28T12:18:07.250Z,13.86
2017-02-28T12:19:17.602Z,14.13
2017-02-28T12:20:27.914Z,14
2017-02-28T12:21:38.233Z,13.95
2017-02-28T12:22:48.803Z,14.03
2017-02-28T12:23:59.120Z,14.22
2017-02-28T12:25:09.451Z,14.67
2017-02-28T12:26:19.815Z,14.83
2017-02-28T12:27:29.736Z,14.9
2017-02-28T12:28:39.987Z,14.81
2017-02-28T12:29:50.288Z,14.63
2017-02-28T12:31:00.582Z,14.43
2017-02-28T12:32:10.526Z,14.39
2017-02-28T12:33:20.838Z,14.51
2017-02-28T12:34:31.416Z,14.67
2017-02-28T12:35:41.736Z,14.66
2017-02-28T12:36:51.626Z,14.65
2017-02-28T12:38:01.931Z,14.54
2017-02-28T12:39:11.865Z,14.5
2017-02-28T12:40:22.551Z,14.56
2017-02-28T12:41:32.880Z,14.52
2017-02-28T12:42:42.806Z,14.24
2017-02-28T12:43:52.746Z,14.07
2017-02-28T12:45:02.618Z,14.1
2017-02-28T12:46:11.583Z,14.06
2017-02-28T12:47:21.892Z,14.13
2017-02-28T12:48:31.851Z,14.25
2017-02-28T12:49:42.167Z,14.58
2017-02-28T12:50:52.506Z,14.78
2017-02-28T12:52:03.087Z,15.05
2017-02-28T12:53:13.050Z,15.24
2017-02-28T12:54:23.407Z,15.54
2017-02-28T12:55:33.313Z,15.7
2017-02-28T12:56:43.305Z,15.82
2017-02-28T12:57:53.975Z,15.75
2017-02-28T12:59:03.993Z,15.78
2017-02-28T13:00:14.330Z,15.72
2017-02-28T13:01:24.666Z,15.95
2017-02-28T13:02:34.632Z,16.02
2017-02-28T13:03:45.172Z,16.13
2017-02-28T13:04:55.141Z,16.14
2017-02-28T13:06:04.655Z,16.21
2017-02-28T13:07:14.604Z,16.13
2017-02-28T13:08:24.529Z,15.96
2017-02-28T13:09:34.716Z,15.95
2017-02-28T13:10:44.740Z,15.92
2017-02-28T13:11:55.029Z,15.91
2017-02-28T13:13:04.666Z,15.94
2017-02-28T13:14:14.978Z,15.75
2017-02-28T13:15:25.624Z,15.55
2017-02-28T13:16:35.987Z,15.33
2017-02-28T13:17:46.318Z,15.33
2017-02-28T13:18:56.651Z,15.21
2017-02-28T13:20:07.021Z,15.15
2017-02-28T13:21:17.670Z,15.25
2017-02-28T13:22:27.169Z,15.32
2017-02-28T13:23:37.524Z,15.29
2017-02-28T13:24:47.457Z,15.15
2017-02-28T13:25:57.413Z,14.72
2017-02-28T13:27:08.052Z,14.26
2017-02-28T13:28:17.959Z,13.99
2017-02-28T13:29:28.327Z,13.59
2017-02-28T13:30:38.623Z,13.48
2017-02-28T13:31:48.572Z,13.41
2017-02-28T13:32:58.839Z,13.36
2017-02-28T13:34:09.193Z,13.37
2017-02-28T13:35:18.290Z,13.4
2017-02-28T13:36:28.601Z,13.36
2017-02-28T13:37:38.514Z,13.03
2017-02-28T13:38:49.135Z,13
2017-02-28T13:39:59.461Z,12.95
2017-02-28T13:41:09.830Z,12.8
2017-02-28T13:42:19.808Z,12.78
2017-02-28T13:43:30.262Z,12.66
2017-02-28T13:44:41.007Z,12.44
2017-02-28T13:45:51.310Z,12.37
2017-02-28T13:47:01.652Z,12.22
2017-02-28T13:48:11.989Z,12.16
2017-02-28T13:49:22.337Z,11.94
2017-02-28T13:50:32.907Z,11.64
2017-02-28T13:51:43.253Z,11.39
2017-02-28T13:52:53.171Z,11.28
2017-02-28T13:54:03.087Z,11.03
2017-02-28T13:55:12.989Z,10.88
2017-02-28T13:56:23.573Z,10.8
2017-02-28T13:57:33.901Z,10.75
2017-02-28T13:58:43.828Z,10.57
2017-02-28T13:59:53.825Z,10.37
2017-02-28T14:01:04.151Z,10.27
2017-02-28T14:02:14.708Z,10.37
2017-02-28T14:03:24.614Z,10.26
2017-02-28T14:04:34.933Z,10.29
2017-02-28T14:05:45.241Z,10.27
2017-02-28T14:06:55.537Z,10.26
2017-02-28T14:08:05.973Z,10.37
2017-02-28T14:09:15.922Z,10.47
2017-02-28T14:10:25.393Z,10.5
2017-02-28T14:11:35.288Z,10.54
2017-02-28T14:12:45.630Z,10.51
2017-02-28T14:13:56.208Z,10.5
2017-02-28T14:15:06.524Z,10.58
2017-02-28T14:16:16.468Z,10.66
2017-02-28T14:17:26.762Z,10.66
2017-02-28T14:18:36.252Z,10.61
2017-02-28T14:19:46.916Z,10.51
2017-02-28T14:20:57.348Z,10.51
2017-02-28T14:22:07.272Z,10.33
2017-02-28T14:23:17.627Z,10.4
2017-02-28T14:24:27.984Z,10.47
2017-02-28T14:25:38.580Z,10.5
2017-02-28T14:26:48.931Z,10.47
2017-02-28T14:27:59.220Z,10.4
2017-02-28T14:29:09.572Z,10.26
2017-02-28T14:30:19.480Z,10.29
2017-02-28T14:31:30.029Z,10.24
2017-02-28T14:32:40.078Z,10.33
2017-02-28T14:33:50.461Z,10.33
2017-02-28T14:35:00.931Z,10.18
2017-02-28T14:36:11.296Z,10.13
2017-02-28T14:37:21.117Z,10.15
2017-02-28T14:38:31.477Z,10.15
2017-02-28T14:39:41.422Z,10.1
2017-02-28T14:40:51.787Z,10.08
2017-02-28T14:42:02.110Z,10.07
2017-02-28T14:43:12.729Z,9.92
2017-02-28T14:44:22.347Z,9.93
2017-02-28T14:45:32.264Z,9.92
2017-02-28T14:46:42.604Z,9.84
2017-02-28T14:47:52.952Z,9.78
2017-02-28T14:49:03.612Z,9.73
2017-02-28T14:50:14.131Z,9.62
2017-02-28T14:51:24.495Z,9.48
2017-02-28T14:52:34.887Z,9.41
2017-02-28T14:53:45.251Z,9.35
2017-02-28T14:54:55.840Z,9.29
2017-02-28T14:56:06.208Z,9.27
2017-02-28T14:57:16.585Z,9.16
2017-02-28T14:58:27.065Z,9.05
2017-02-28T14:59:37.456Z,9.01
2017-02-28T15:00:48.024Z,8.87
2017-02-28T15:01:57.993Z,8.95
2017-02-28T15:03:07.947Z,8.89
2017-02-28T15:04:18.296Z,8.95
2017-02-28T15:05:27.496Z,8.95
2017-02-28T15:06:38.129Z,8.68
2017-02-28T15:07:48.070Z,8.67
2017-02-28T15:08:58.399Z,8.58
2017-02-28T15:10:08.719Z,8.45
2017-02-28T15:11:19.083Z,8.52
2017-02-28T15:12:29.668Z,8.39
2017-02-28T15:13:39.999Z,8.3
2017-02-28T15:14:49.483Z,8.34
2017-02-28T15:15:59.854Z,8.16
2017-02-28T15:17:10.202Z,8.16
2017-02-28T15:18:20.765Z,8.13
2017-02-28T15:19:31.126Z,8.16
2017-02-28T15:20:41.075Z,8.2
2017-02-28T15:21:51.035Z,8.15
2017-02-28T15:23:00.933Z,8.17
2017-02-28T15:24:11.180Z,8.13
2017-02-28T15:25:21.496Z,8.03
2017-02-28T15:26:31.530Z,7.99
2017-02-28T15:27:41.856Z,7.94